Time;durP1;ratioP1;P1;durP2;ratioP2;P2;SDS_P1;SDS_P2;PMS_P1;PMS_P2;Temp;Humidity;BMP_temperature;BMP_pressure;BME280_temperature;BME280_humidity;BME280_pressure;Samples;Min_cycle;Max_cycle;Signal;HPM_P1;HPM_P2
2021/12/27 00:01:08;;;;;;;120.90;36.73;;;;;;;-12.66;100.00;101455.86;1400418;100;21220;-88
2021/12/27 00:03:35;;;;;;;108.15;33.05;;;;;;;-12.72;100.00;101460.58;1398838;100;21150;-87
2021/12/27 00:06:01;;;;;;;101.72;34.25;;;;;;;-12.76;100.00;101464.25;1400563;100;21539;-86
2021/12/27 00:08:27;;;;;;;106.85;34.78;;;;;;;-12.86;100.00;101462.19;1400976;100;21181;-87
2021/12/27 00:10:53;;;;;;;103.38;34.40;;;;;;;-12.86;100.00;101460.06;1400571;100;21102;-87
2021/12/27 00:13:29;;;;;;;;;;;;;;;;;;;;;
2021/12/27 00:15:47;;;;;;;121.40;39.78;;;;;;;-12.89;100.00;101457.64;1396685;101;21178;-87
2021/12/27 00:18:14;;;;;;;121.90;38.80;;;;;;;-12.94;100.00;101460.52;1441231;98;21727;-89
2021/12/27 00:20:40;;;;;;;108.83;34.67;;;;;;;-12.95;100.00;101458.82;1427622;100;21243;-88
2021/12/27 00:23:06;;;;;;;108.20;33.90;;;;;;;-13.01;100.00;101456.58;1421850;100;21769;-87
2021/12/27 00:25:32;;;;;;;108.10;33.80;;;;;;;-13.09;100.00;101456.16;1426757;98;21033;-88
2021/12/27 00:27:58;;;;;;;104.47;33.08;;;;;;;-13.13;100.00;101450.78;1468524;97;21646;-88
2021/12/27 00:30:25;;;;;;;94.10;31.57;;;;;;;-13.14;100.00;101458.20;1468934;97;21176;-87
2021/12/27 00:32:51;;;;;;;98.20;31.85;;;;;;;-13.17;100.00;101464.86;1469603;97;22256;-87
2021/12/27 00:35:18;;;;;;;92.95;29.27;;;;;;;-13.19;100.00;101461.50;1471065;97;21121;-88
2021/12/27 00:37:46;;;;;;;94.75;29.95;;;;;;;-13.24;100.00;101470.81;1471088;97;21088;-88
2021/12/27 00:40:14;;;;;;;96.30;30.62;;;;;;;-13.29;100.00;101469.83;1471170;96;21115;-88
2021/12/27 00:42:40;;;;;;;99.97;31.50;;;;;;;-13.30;100.00;101466.84;1470914;95;21107;-88
2021/12/27 00:45:07;;;;;;;102.80;32.08;;;;;;;-13.34;100.00;101466.64;1479559;94;21655;-88
2021/12/27 00:47:33;;;;;;;111.72;33.98;;;;;;;-13.39;100.00;101467.34;1545687;90;20997;-88
2021/12/27 00:50:00;;;;;;;97.60;31.85;;;;;;;-13.42;100.00;101474.00;1589552;90;21599;-88
2021/12/27 00:52:26;;;;;;;101.18;32.55;;;;;;;-13.42;100.00;101470.11;1589797;88;21120;-87
2021/12/27 00:54:52;;;;;;;97.82;31.75;;;;;;;-13.47;100.00;101467.39;1638711;86;21050;-88
2021/12/27 00:57:18;;;;;;;99.65;30.40;;;;;;;-13.48;100.00;101469.15;1668806;86;21207;-88
2021/12/27 00:59:44;;;;;;;100.30;31.48;;;;;;;-13.44;100.00;101471.11;1640577;86;21022;-88
2021/12/27 01:02:10;;;;;;;98.27;31.25;;;;;;;-13.43;100.00;101473.63;1661608;86;26583;-87
2021/12/27 01:04:36;;;;;;;97.57;30.97;;;;;;;-13.54;100.00;101470.78;1661720;86;21077;-88
2021/12/27 01:07:03;;;;;;;102.90;30.50;;;;;;;-13.64;100.00;101472.20;1661698;86;21026;-87
2021/12/27 01:14:40;;;;;;;109.30;34.15;;;;;;;-13.77;100.00;101487.08;1541443;91;21108;-88
2021/12/27 01:16:55;;;;;;;103.05;31.42;;;;;;;-13.81;100.00;101485.58;1541424;91;21129;-87
2021/12/27 01:19:22;;;;;;;88.27;29.72;;;;;;;-13.81;100.00;101480.41;1547829;91;27706;-87
2021/12/27 01:21:48;;;;;;;86.55;27.02;;;;;;;-13.85;100.00;101481.92;1555528;90;21086;-87
2021/12/27 01:24:14;;;;;;;87.22;28.85;;;;;;;-13.86;100.00;101488.86;1555341;90;27658;-87
2021/12/27 01:26:40;;;;;;;85.62;27.93;;;;;;;-13.90;100.00;101479.59;1555486;90;21255;-86
2021/12/27 01:29:07;;;;;;;104.55;30.92;;;;;;;-13.92;100.00;101477.53;1555540;90;28326;-88
2021/12/27 01:31:33;;;;;;;93.42;30.20;;;;;;;-13.93;100.00;101478.92;1555276;90;21477;-88
2021/12/27 01:33:59;;;;;;;84.77;28.00;;;;;;;-13.94;100.00;101492.77;1555484;91;21716;-87
2021/12/27 01:36:31;;;;;;;90.65;28.83;;;;;;;-14.02;100.00;101495.31;1555385;90;26786;-87
2021/12/27 01:38:53;;;;;;;83.82;27.58;;;;;;;-14.03;100.00;101497.97;1554804;90;21117;-88
2021/12/27 01:41:19;;;;;;;87.37;27.55;;;;;;;-13.99;100.00;101499.04;1555790;90;28546;-87
2021/12/27 01:43:46;;;;;;;82.27;25.97;;;;;;;-14.02;100.00;101498.37;1555447;90;21067;-87
2021/12/27 01:46:19;;;;;;;79.47;26.10;;;;;;;-14.10;100.00;101499.21;1555403;90;21655;-87
2021/12/27 01:48:54;;;;;;;92.65;27.50;;;;;;;-14.16;100.00;101505.54;1562401;88;20998;-88
2021/12/27 01:51:17;;;;;;;84.70;26.73;;;;;;;-14.27;100.00;101495.72;1638258;83;21058;-87
2021/12/27 01:53:46;;;;;;;82.22;26.73;;;;;;;-14.30;100.00;101501.05;1696176;83;21074;-87
2021/12/27 01:56:16;;;;;;;77.97;26.00;;;;;;;-14.33;100.00;101490.86;1716802;83;21085;-87
2021/12/27 01:58:44;;;;;;;85.05;26.30;;;;;;;-14.31;100.00;101494.67;1715896;83;21107;-88
2021/12/27 02:01:12;;;;;;;76.17;26.62;;;;;;;-14.32;100.00;101500.31;1714667;82;21513;-87
2021/12/27 02:03:41;;;;;;;90.12;27.00;;;;;;;-14.37;100.00;101504.05;1706313;83;21052;-87
2021/12/27 02:06:13;;;;;;;88.33;28.25;;;;;;;-14.43;100.00;101502.13;1704501;84;21036;-87
2021/12/27 02:08:41;;;;;;;81.08;25.72;;;;;;;-14.39;100.00;101505.86;1705156;84;21462;-87
2021/12/27 02:11:09;;;;;;;82.33;24.30;;;;;;;-14.42;100.00;101505.55;1704400;84;21235;-88
2021/12/27 02:13:43;;;;;;;84.32;27.58;;;;;;;-14.49;100.00;101514.09;1704797;84;20957;-87
2021/12/27 02:16:08;;;;;;;81.82;26.00;;;;;;;-14.52;100.00;101513.44;1705012;84;21540;-87
2021/12/27 02:18:35;;;;;;;87.72;27.40;;;;;;;-14.53;100.00;101513.87;1704577;84;21138;-86
2021/12/27 02:21:01;;;;;;;80.83;24.82;;;;;;;-14.57;100.00;101521.41;1704367;84;21051;-87
2021/12/27 02:23:27;;;;;;;78.87;26.12;;;;;;;-14.59;100.00;101515.47;1704723;83;21631;-87
2021/12/27 02:25:53;;;;;;;84.72;25.92;;;;;;;-14.63;100.00;101523.01;1704698;83;27098;-88
2021/12/27 02:28:20;;;;;;;79.60;25.77;;;;;;;-14.67;100.00;101532.67;1704736;83;26395;-86
2021/12/27 02:30:50;;;;;;;81.42;25.35;;;;;;;-14.74;100.00;101535.62;1704578;83;20997;-87
2021/12/27 02:33:16;;;;;;;82.02;26.40;;;;;;;-14.80;100.00;101535.45;1704664;83;21084;-87
2021/12/27 02:35:50;;;;;;;79.47;26.02;;;;;;;-14.86;100.00;101536.21;1704852;83;21048;-87
2021/12/27 02:38:21;;;;;;;68.78;22.80;;;;;;;-14.91;100.00;101544.17;1701541;84;21127;-87
2021/12/27 02:40:48;;;;;;;75.45;22.87;;;;;;;-15.06;100.00;101541.02;1687444;83;21030;-87
2021/12/27 02:43:21;;;;;;;76.77;23.62;;;;;;;-15.20;100.00;101542.97;1687595;83;21018;-88
2021/12/27 02:45:55;;;;;;;77.40;23.87;;;;;;;-15.39;100.00;101552.84;1687477;83;21061;-87
2021/12/27 02:48:28;;;;;;;74.22;22.52;;;;;;;-15.51;100.00;101545.64;1687675;83;21095;-86
2021/12/27 02:50:56;;;;;;;66.75;22.25;;;;;;;-15.54;100.00;101545.78;1687655;83;21049;-88
2021/12/27 02:53:24;;;;;;;75.08;25.55;;;;;;;-15.55;100.00;101553.62;1687627;83;21030;-87
2021/12/27 02:55:54;;;;;;;83.58;27.98;;;;;;;-15.59;100.00;101552.44;1687341;83;21038;-86
2021/12/27 02:58:20;;;;;;;115.62;32.05;;;;;;;-15.64;100.00;101552.28;1687591;83;21530;-86
2021/12/27 03:00:54;;;;;;;132.18;33.55;;;;;;;-15.73;100.00;101549.68;1691979;83;21262;-87
2021/12/27 03:03:20;;;;;;;98.60;28.85;;;;;;;-15.82;100.00;101559.13;1689599;84;21129;-86
2021/12/27 03:05:48;;;;;;;87.15;27.85;;;;;;;-15.92;100.00;101555.24;1689704;84;21022;-86
2021/12/27 03:08:15;;;;;;;67.65;24.43;;;;;;;-15.97;100.00;101559.76;1689908;84;20972;-87
2021/12/27 03:10:49;;;;;;;80.17;26.15;;;;;;;-16.01;100.00;101560.80;1689736;84;21093;-87
2021/12/27 03:13:22;;;;;;;76.72;26.23;;;;;;;-16.01;100.00;101561.64;1689959;84;21782;-87
2021/12/27 03:15:54;;;;;;;82.42;28.42;;;;;;;-16.00;100.00;101559.89;1689828;84;21051;-88
2021/12/27 03:18:20;;;;;;;88.37;26.85;;;;;;;-15.98;100.00;101561.96;1689986;84;20999;-87
2021/12/27 03:20:48;;;;;;;80.92;29.12;;;;;;;-15.96;100.00;101561.00;1689845;84;21051;-88
2021/12/27 03:23:14;;;;;;;84.50;28.30;;;;;;;-15.93;100.00;101563.91;1689863;84;21499;-87
2021/12/27 03:25:40;;;;;;;88.70;31.75;;;;;;;-15.93;100.00;101565.20;1689712;84;21138;-88
2021/12/27 03:28:07;;;;;;;90.42;32.38;;;;;;;-15.96;100.00;101572.61;1689857;84;21026;-87
2021/12/27 03:30:33;;;;;;;97.33;32.00;;;;;;;-15.98;100.00;101579.57;1689746;84;20975;-87
2021/12/27 03:32:59;;;;;;;106.78;31.52;;;;;;;-16.02;100.00;101583.20;1689913;84;21545;-87
2021/12/27 03:35:28;;;;;;;85.25;29.27;;;;;;;-16.11;100.00;101581.01;1689859;84;21047;-87
2021/12/27 03:37:57;;;;;;;79.32;27.48;;;;;;;-16.19;100.00;101580.48;1705600;82;21077;-87
2021/12/27 03:40:26;;;;;;;107.20;35.58;;;;;;;-16.18;100.00;101593.76;1719145;83;21494;-87
2021/12/27 03:42:54;;;;;;;119.33;35.28;;;;;;;-16.13;100.00;101593.13;1719190;82;21006;-87
2021/12/27 03:45:39;;;;;;;93.67;31.12;;;;;;;-16.05;100.00;101588.03;1719262;83;21054;-86
2021/12/27 03:48:08;;;;;;;89.60;32.33;;;;;;;-16.01;100.00;101589.20;1719109;83;21431;-86
2021/12/27 03:50:35;;;;;;;88.12;30.17;;;;;;;-16.05;100.00;101588.48;1688329;83;21120;-86
2021/12/27 03:53:01;;;;;;;97.00;32.63;;;;;;;-16.05;100.00;101586.74;1719221;83;21010;-86
2021/12/27 03:55:28;;;;;;;126.30;35.70;;;;;;;-16.04;100.00;101593.58;1719071;83;21514;-87
2021/12/27 03:58:05;;;;;;;147.05;36.88;;;;;;;-16.05;100.00;101595.77;1719185;83;21062;-86
2021/12/27 04:00:31;;;;;;;176.75;37.85;;;;;;;-16.07;100.00;101604.02;1712354;83;21063;-86
2021/12/27 04:02:58;;;;;;;192.28;38.30;;;;;;;-16.14;100.00;101601.33;1706785;83;21513;-86
2021/12/27 04:05:25;;;;;;;230.25;39.55;;;;;;;-16.16;100.00;101600.54;1704670;84;21104;-86
2021/12/27 04:08:04;;;;;;;213.00;39.85;;;;;;;-16.17;100.00;101603.20;1704928;84;21057;-86
2021/12/27 04:10:30;;;;;;;228.95;40.55;;;;;;;-16.17;100.00;101608.36;1704452;83;21012;-87
2021/12/27 04:12:57;;;;;;;241.78;40.20;;;;;;;-16.16;100.00;101611.31;1704638;84;21458;-87
2021/12/27 04:15:23;;;;;;;205.60;39.55;;;;;;;-16.20;100.00;101611.91;1701589;84;21189;-87
2021/12/27 04:17:51;;;;;;;228.22;41.02;;;;;;;-16.18;100.00;101615.69;1704640;84;21055;-86
2021/12/27 04:20:18;;;;;;;183.37;40.85;;;;;;;-16.18;100.00;101615.69;1704487;84;21009;-86
2021/12/27 04:22:44;;;;;;;165.55;40.03;;;;;;;-16.20;100.00;101620.06;1704681;83;21065;-87
2021/12/27 04:25:10;;;;;;;149.23;41.30;;;;;;;-16.20;100.00;101617.06;1704863;84;26682;-86
2021/12/27 04:27:36;;;;;;;148.93;41.37;;;;;;;-16.18;100.00;101628.14;1704691;83;21826;-87
2021/12/27 04:30:03;;;;;;;167.30;41.75;;;;;;;-16.16;100.00;101628.92;1704701;83;21052;-86
2021/12/27 04:32:29;;;;;;;198.57;51.02;;;;;;;-16.16;100.00;101636.66;1704618;83;21040;-86
2021/12/27 04:34:55;;;;;;;217.72;49.30;;;;;;;-16.13;100.00;101640.41;1704692;83;28179;-87
2021/12/27 04:37:23;;;;;;;236.77;48.92;;;;;;;-16.13;100.00;101641.70;1704897;83;27000;-86
2021/12/27 04:39:49;;;;;;;203.95;47.40;;;;;;;-16.12;100.00;101640.78;1704493;84;21571;-85
2021/12/27 04:42:16;;;;;;;237.27;45.80;;;;;;;-16.12;100.00;101647.23;1704694;84;21067;-86
2021/12/27 04:44:42;;;;;;;198.10;46.33;;;;;;;-16.12;100.00;101656.27;1704570;82;21083;-86
2021/12/27 04:47:12;;;;;;;257.50;49.27;;;;;;;-16.07;100.00;101655.64;1704845;83;21092;-87
2021/12/27 04:49:36;;;;;;;261.05;45.95;;;;;;;-16.05;100.00;101650.43;1704943;84;21060;-87
2021/12/27 04:52:03;;;;;;;213.22;45.52;;;;;;;-16.06;100.00;101654.76;1704976;83;21784;-86
2021/12/27 04:54:29;;;;;;;195.45;46.40;;;;;;;-16.00;100.00;101662.67;1704698;83;21001;-88
2021/12/27 04:56:55;;;;;;;167.47;42.15;;;;;;;-15.95;100.00;101660.75;1730421;81;26674;-88
2021/12/27 04:59:21;;;;;;;163.70;45.12;;;;;;;-15.91;100.00;101661.03;1722463;80;21572;-86
2021/12/27 05:01:47;;;;;;;201.77;45.85;;;;;;;-15.85;100.00;101671.53;1770083;81;26581;-87
2021/12/27 05:04:13;;;;;;;185.25;46.80;;;;;;;-15.82;100.00;101667.55;1769966;80;21896;-86
2021/12/27 05:06:40;;;;;;;169.77;49.40;;;;;;;-15.80;100.00;101669.14;1769894;80;25475;-88
2021/12/27 05:09:06;;;;;;;257.62;49.75;;;;;;;-15.73;100.00;101676.20;1769782;80;21062;-87
2021/12/27 05:11:32;;;;;;;238.60;47.83;;;;;;;-15.74;100.00;101680.96;1769967;80;28450;-88
2021/12/27 05:13:58;;;;;;;220.70;47.40;;;;;;;-15.79;100.00;101675.17;1738856;81;20991;-87
2021/12/27 05:16:24;;;;;;;203.52;42.00;;;;;;;-15.85;100.00;101675.40;1769722;80;21134;-87
2021/12/27 05:18:50;;;;;;;187.53;39.95;;;;;;;-15.80;100.00;101674.77;1770005;80;21420;-86
2021/12/27 05:21:16;;;;;;;200.18;41.73;;;;;;;-15.76;100.00;101680.20;1770117;81;26588;-88
2021/12/27 05:23:43;;;;;;;200.50;44.42;;;;;;;-15.72;100.00;101686.08;1769752;80;21554;-88
2021/12/27 05:26:09;;;;;;;184.15;44.85;;;;;;;-15.66;100.00;101689.20;1769949;81;21090;-87
2021/12/27 05:28:35;;;;;;;188.90;47.53;;;;;;;-15.61;100.00;101685.98;1770139;80;21690;-88
2021/12/27 05:31:01;;;;;;;203.92;43.60;;;;;;;-15.54;100.00;101699.93;1769806;81;21066;-88
2021/12/27 05:33:27;;;;;;;223.55;48.28;;;;;;;-15.55;100.00;101698.26;1769802;80;21093;-88
2021/12/27 05:35:53;;;;;;;239.85;50.23;;;;;;;-15.55;100.00;101694.39;1769957;81;28158;-88
2021/12/27 05:38:19;;;;;;;233.40;51.25;;;;;;;-15.52;100.00;101698.13;1769898;81;21507;-88
2021/12/27 05:40:45;;;;;;;196.55;47.65;;;;;;;-15.53;100.00;101711.47;1769943;80;21051;-87
2021/12/27 05:43:11;;;;;;;181.65;43.05;;;;;;;-15.61;100.00;101720.84;1769753;79;21043;-87
2021/12/27 05:45:38;;;;;;;172.68;42.78;;;;;;;-15.67;100.00;101726.27;1745185;80;25682;-88
2021/12/27 05:48:06;;;;;;;167.98;43.52;;;;;;;-15.68;100.00;101731.06;1720519;83;21597;-88
2021/12/27 05:50:33;;;;;;;186.28;44.70;;;;;;;-15.67;100.00;101735.80;1690233;84;21034;-88
2021/12/27 05:53:01;;;;;;;180.40;47.45;;;;;;;-15.65;100.00;101738.65;1724952;81;21069;-87
2021/12/27 05:55:28;;;;;;;175.80;45.43;;;;;;;-15.63;100.00;101738.59;1747841;80;21035;-88
2021/12/27 05:57:54;;;;;;;173.65;44.13;;;;;;;-15.57;100.00;101740.92;1735920;80;21040;-88
2021/12/27 06:00:21;;;;;;;204.00;46.45;;;;;;;-15.47;100.00;101741.38;1711945;81;28222;-89
2021/12/27 06:02:57;;;;;;;224.62;52.05;;;;;;;-15.37;100.00;101739.64;1696570;83;21113;-86
2021/12/27 06:05:25;;;;;;;504.70;114.77;;;;;;;-15.24;100.00;101742.53;1722320;81;21646;-91
2021/12/27 06:07:51;;;;;;;619.10;147.35;;;;;;;-15.03;100.00;101742.52;1732338;81;21114;-93
2021/12/27 06:10:18;;;;;;;316.88;76.72;;;;;;;-14.87;100.00;101747.41;1744013;81;21648;-93
2021/12/27 06:12:47;;;;;;;218.48;54.38;;;;;;;-14.77;100.00;101749.13;1731906;80;21098;-93
2021/12/27 06:15:15;;;;;;;222.55;49.88;;;;;;;-14.68;100.00;101752.14;1704263;83;21578;-96
2021/12/27 06:17:44;;;;;;;212.40;51.30;;;;;;;-14.64;100.00;101765.80;1757426;81;21581;-93
2021/12/27 06:20:17;;;;;;;235.65;56.77;;;;;;;-14.59;100.00;101768.16;1732654;81;21014;-92
2021/12/27 06:23:00;;;;;;;226.52;49.85;;;;;;;-14.50;100.00;101775.47;1746991;81;21101;-93
2021/12/27 06:25:27;;;;;;;241.45;48.83;;;;;;;-14.39;100.00;101776.30;1755798;81;21053;-92
2021/12/27 06:27:53;;;;;;;242.45;47.33;;;;;;;-14.29;100.00;101780.13;1742678;81;21017;-96
2021/12/27 06:30:20;;;;;;;188.40;47.38;;;;;;;-14.21;100.00;101787.92;1705261;83;21052;-95
2021/12/27 06:32:47;;;;;;;223.30;56.02;;;;;;;-14.23;100.00;101794.94;1691266;84;21141;-95
2021/12/27 06:35:17;;;;;;;225.62;59.40;;;;;;;-14.22;100.00;101797.07;1714600;81;21129;-96
2021/12/27 06:37:46;;;;;;;199.68;56.80;;;;;;;-14.11;100.00;101795.30;1719209;81;21026;-94
2021/12/27 06:40:17;;;;;;;224.80;52.38;;;;;;;-13.90;100.00;101792.98;1721622;81;21046;-95
2021/12/27 06:42:43;;;;;;;183.18;44.63;;;;;;;-13.94;100.00;101790.14;1674643;83;21247;-95
2021/12/27 06:45:10;;;;;;;186.30;40.50;;;;;;;-13.95;100.00;101776.81;1686911;84;21534;-94
2021/12/27 06:47:37;;;;;;;162.72;38.25;;;;;;;-13.82;100.00;101794.77;1613176;88;21045;-96
2021/12/27 06:50:05;;;;;;;132.70;36.65;;;;;;;-13.77;100.00;101791.94;1613676;88;21137;-95
2021/12/27 06:52:31;;;;;;;141.22;37.13;;;;;;;-13.88;100.00;101797.64;1616152;86;21071;-95
2021/12/27 06:54:57;;;;;;;116.37;30.45;;;;;;;-14.00;100.00;101797.77;1588104;90;21279;-95
2021/12/27 06:57:23;;;;;;;129.32;29.25;;;;;;;-14.13;100.00;101801.82;1587965;90;26929;-94
2021/12/27 06:59:49;;;;;;;125.25;31.35;;;;;;;-14.16;100.00;101805.84;1588033;87;26714;-94
2021/12/27 07:02:15;;;;;;;119.77;32.10;;;;;;;-14.17;100.00;101799.43;1587936;90;28202;-94
2021/12/27 07:04:41;;;;;;;136.50;37.83;;;;;;;-14.02;100.00;101798.28;1587846;90;21112;-94
2021/12/27 07:07:07;;;;;;;127.02;36.40;;;;;;;-13.71;100.00;101798.58;1587585;89;21224;-94
2021/12/27 07:09:35;;;;;;;130.03;34.10;;;;;;;-13.59;100.00;101801.41;1587699;90;26810;-95
2021/12/27 07:12:05;;;;;;;112.22;31.70;;;;;;;-13.35;100.00;101811.06;1531840;92;21130;-95
2021/12/27 07:14:29;;;;;;;111.40;30.48;;;;;;;-13.01;100.00;101811.09;1557217;92;21130;-93
2021/12/27 07:16:56;;;;;;;97.25;27.98;;;;;;;-12.75;100.00;101820.14;1559799;92;21021;-92
2021/12/27 07:19:22;;;;;;;105.92;29.67;;;;;;;-12.53;100.00;101819.39;1553598;91;21235;-94
2021/12/27 07:21:48;;;;;;;88.72;27.02;;;;;;;-12.37;100.00;101818.97;1552871;91;26808;-94
2021/12/27 07:24:14;;;;;;;90.07;26.33;;;;;;;-12.25;100.00;101823.97;1551459;90;21087;-94
2021/12/27 07:26:40;;;;;;;97.67;27.60;;;;;;;-12.18;100.00;101824.48;1543957;90;21052;-94
2021/12/27 07:29:06;;;;;;;98.75;29.25;;;;;;;-12.16;100.00;101818.28;1556668;92;21027;-94
2021/12/27 07:31:32;;;;;;;104.78;32.28;;;;;;;-11.99;100.00;101829.07;1558031;92;21076;-93
2021/12/27 07:34:01;;;;;;;127.32;36.35;;;;;;;-11.98;100.00;101822.94;1543311;92;21578;-94
2021/12/27 07:36:29;;;;;;;114.42;35.13;;;;;;;-11.87;100.00;101822.83;1561751;91;21358;-96
2021/12/27 07:38:57;;;;;;;105.37;32.00;;;;;;;-11.92;100.00;101826.97;1565951;90;21554;-94
2021/12/27 07:41:24;;;;;;;92.12;26.55;;;;;;;-12.17;100.00;101822.28;1535216;92;21586;-95
2021/12/27 07:43:50;;;;;;;85.05;27.65;;;;;;;-12.32;100.00;101820.47;1629883;85;22634;-94
2021/12/27 07:46:18;;;;;;;95.20;27.48;;;;;;;-12.30;100.00;101825.14;1716620;81;26703;-95
2021/12/27 07:48:44;;;;;;;103.83;28.10;;;;;;;-12.44;100.00;101819.37;1717762;82;21028;-96
2021/12/27 07:51:10;;;;;;;95.07;26.68;;;;;;;-12.59;100.00;101824.47;1711713;83;23825;-96
2021/12/27 07:53:38;;;;;;;88.50;27.30;;;;;;;-12.57;100.00;101824.38;1713329;83;21420;-96
2021/12/27 07:56:07;;;;;;;89.45;28.70;;;;;;;-12.46;100.00;101827.25;1711918;83;21242;-91
2021/12/27 07:58:34;;;;;;;103.97;28.52;;;;;;;-12.21;100.00;101824.64;1710523;83;21029;-94
2021/12/27 08:01:00;;;;;;;106.60;27.05;;;;;;;-12.16;100.00;101810.95;1711194;83;21056;-94
2021/12/27 08:03:26;;;;;;;94.40;27.30;;;;;;;-11.87;100.00;101823.66;1711656;83;21596;-95
2021/12/27 08:05:52;;;;;;;84.42;25.90;;;;;;;-11.67;100.00;101835.53;1710984;83;21036;-90
2021/12/27 08:08:19;;;;;;;84.22;27.45;;;;;;;-11.51;100.00;101824.62;1711542;83;21051;-96
2021/12/27 08:10:46;;;;;;;81.57;24.67;;;;;;;-11.42;100.00;101827.64;1689190;83;21036;-96
2021/12/27 08:13:15;;;;;;;79.50;24.95;;;;;;;-11.32;100.00;101823.58;1713051;83;21013;-96
2021/12/27 08:15:41;;;;;;;73.30;23.52;;;;;;;-11.42;100.00;101819.38;1709868;83;21139;-95
2021/12/27 08:18:07;;;;;;;82.30;25.23;;;;;;;-11.33;100.00;101814.94;1711614;83;20941;-93
2021/12/27 08:20:34;;;;;;;80.30;26.00;;;;;;;-11.41;100.00;101814.56;1710696;83;21516;-94
2021/12/27 08:23:05;;;;;;;88.55;28.32;;;;;;;-11.55;100.00;101817.11;1710160;83;21573;-92
2021/12/27 08:25:30;;;;;;;112.28;35.28;;;;;;;-11.63;100.00;101816.69;1713835;82;21082;-88
2021/12/27 08:27:56;;;;;;;107.95;31.65;;;;;;;-11.73;100.00;101818.98;1710598;83;21016;-89
2021/12/27 08:30:24;;;;;;;93.37;29.05;;;;;;;-11.72;100.00;101806.34;1710693;83;21043;-89
2021/12/27 08:32:52;;;;;;;77.37;24.82;;;;;;;-11.78;100.00;101809.29;1635858;85;21965;-89
2021/12/27 08:35:18;;;;;;;71.97;24.60;;;;;;;-11.73;100.00;101809.87;1635350;85;21118;-88
2021/12/27 08:37:44;;;;;;;68.35;23.62;;;;;;;-11.65;100.00;101807.66;1645507;84;21828;-90
2021/12/27 08:40:16;;;;;;;76.55;25.25;;;;;;;-11.53;100.00;101804.41;1675425;84;21029;-88
2021/12/27 08:42:42;;;;;;;74.87;26.48;;;;;;;-11.57;100.00;101808.55;1674757;84;21077;-90
2021/12/27 08:45:10;;;;;;;85.05;27.10;;;;;;;-11.58;100.00;101801.68;1689876;83;21104;-93
2021/12/27 08:47:36;;;;;;;94.97;30.88;;;;;;;-11.59;100.00;101799.52;1722793;83;21611;-92
2021/12/27 08:50:05;;;;;;;97.30;30.80;;;;;;;-11.44;100.00;101803.01;1722401;83;21182;-93
2021/12/27 08:52:33;;;;;;;108.63;34.15;;;;;;;-11.35;100.00;101801.64;1722760;83;21099;-92
2021/12/27 08:55:03;;;;;;;110.40;33.18;;;;;;;-11.20;100.00;101792.98;1723153;83;21004;-92
2021/12/27 08:57:32;;;;;;;98.72;31.93;;;;;;;-11.05;100.00;101799.05;1722560;83;21149;-92
2021/12/27 08:59:59;;;;;;;116.80;33.45;;;;;;;-10.90;100.00;101798.61;1722876;83;20988;-92
2021/12/27 09:02:25;;;;;;;113.47;34.30;;;;;;;-10.82;100.00;101797.70;1716322;83;21521;-93
2021/12/27 09:04:51;;;;;;;129.93;37.33;;;;;;;-10.83;100.00;101796.83;1713037;83;21091;-92
2021/12/27 09:07:18;;;;;;;118.67;35.95;;;;;;;-10.78;100.00;101804.38;1713325;83;20933;-92
2021/12/27 09:09:44;;;;;;;124.22;37.30;;;;;;;-10.42;100.00;101804.38;1669074;85;22057;-92
2021/12/27 09:12:12;;;;;;;117.25;35.92;;;;;;;-10.38;100.00;101802.81;1662556;85;21201;-93
2021/12/27 09:14:38;;;;;;;110.42;35.68;;;;;;;-10.17;100.00;101811.51;1667461;85;20947;-92
2021/12/27 09:17:05;;;;;;;106.47;33.60;;;;;;;-9.94;100.00;101812.65;1667302;86;21118;-92
2021/12/27 09:19:31;;;;;;;108.97;35.90;;;;;;;-9.94;100.00;101812.21;1667455;85;21041;-92
2021/12/27 09:21:57;;;;;;;105.55;34.30;;;;;;;-9.81;100.00;101809.66;1643331;86;21185;-93
2021/12/27 09:24:23;;;;;;;103.72;33.60;;;;;;;-9.83;100.00;101811.04;1666824;85;21541;-92
2021/12/27 09:27:04;;;;;;;104.80;32.98;;;;;;;-9.75;100.00;101810.56;1666847;85;21081;-92
2021/12/27 09:29:30;;;;;;;101.47;32.20;;;;;;;-9.77;100.00;101792.86;1664791;84;21513;-93
2021/12/27 09:32:00;;;;;;;111.83;34.60;;;;;;;-9.42;100.00;101810.15;1690363;84;20901;-94
2021/12/27 09:34:26;;;;;;;118.33;37.13;;;;;;;-9.22;100.00;101817.16;1696079;82;21401;-93
2021/12/27 09:36:52;;;;;;;111.70;34.65;;;;;;;-9.23;100.00;101812.41;1678678;83;21082;-93
2021/12/27 09:39:18;;;;;;;117.05;34.18;;;;;;;-9.29;100.00;101815.87;1688068;83;21045;-92
2021/12/27 09:41:45;;;;;;;109.92;34.67;;;;;;;-9.24;100.00;101813.80;1700572;83;21027;-92
2021/12/27 09:44:11;;;;;;;110.22;33.58;;;;;;;-9.17;100.00;101817.22;1726640;82;21230;-93
2021/12/27 09:46:37;;;;;;;101.33;32.63;;;;;;;-9.01;100.00;101810.97;1725522;83;21135;-93
2021/12/27 09:49:08;;;;;;;92.80;29.70;;;;;;;-8.90;100.00;101809.79;1729774;82;21066;-91
2021/12/27 09:51:37;;;;;;;101.18;30.08;;;;;;;-8.98;100.00;101806.37;1724566;83;21045;-92
2021/12/27 09:54:04;;;;;;;95.75;29.50;;;;;;;-9.09;100.00;101801.50;1728703;82;21007;-93
2021/12/27 09:56:30;;;;;;;100.38;30.80;;;;;;;-9.05;100.00;101802.52;1724762;83;21002;-92
2021/12/27 09:58:57;;;;;;;107.95;33.92;;;;;;;-9.04;100.00;101808.09;1725474;83;22248;-89
2021/12/27 10:01:23;;;;;;;114.97;36.25;;;;;;;-9.17;100.00;101815.91;1718479;81;21082;-90
2021/12/27 10:03:56;;;;;;;134.00;39.30;;;;;;;-9.09;100.00;101809.34;1735043;82;21053;-89
2021/12/27 10:06:27;;;;;;;122.17;37.42;;;;;;;-8.93;100.00;101816.05;1734060;82;21515;-90
2021/12/27 10:08:57;;;;;;;111.72;35.55;;;;;;;-8.78;100.00;101818.57;1725203;82;21060;-91
2021/12/27 10:11:29;;;;;;;121.82;36.95;;;;;;;-8.60;100.00;101821.23;1724989;82;20992;-90
2021/12/27 10:14:11;;;;;;;121.10;36.13;;;;;;;-8.58;100.00;101819.83;1725258;83;21008;-89
2021/12/27 10:16:48;;;;;;;119.75;37.17;;;;;;;-8.55;100.00;101823.55;1725163;83;21622;-89
2021/12/27 10:19:18;;;;;;;119.85;38.02;;;;;;;-8.47;100.00;101827.75;1723841;83;20973;-89
2021/12/27 10:21:58;;;;;;;132.03;39.58;;;;;;;-8.34;100.00;101828.55;1704683;83;21500;-90
2021/12/27 10:24:50;;;;;;;;;;;;;;;;;;;;;
2021/12/27 10:27:22;;;;;;;;;;;;;;;;;;;;;
2021/12/27 10:30:45;;;;;;;;;;;;;;;;;;;;;
2021/12/27 10:50:02;;;;;;;115.37;35.00;;;;;;;-8.92;100.00;101831.24;1425766;98;21144;-86
2021/12/27 10:53:00;;;;;;;133.45;39.83;;;;;;;-8.76;100.00;101834.52;1425298;99;21113;-83
2021/12/27 10:55:46;;;;;;;113.03;35.28;;;;;;;-8.66;100.00;101846.95;1440869;97;21171;-85
2021/12/27 10:58:20;;;;;;;116.15;37.38;;;;;;;-8.76;100.00;101836.30;1490381;93;21163;-86
2021/12/27 11:01:00;;;;;;;107.90;35.17;;;;;;;-8.67;100.00;101835.66;1561847;89;21068;-85
2021/12/27 11:03:34;;;;;;;118.90;36.70;;;;;;;-8.59;100.00;101835.12;1565392;89;21164;-85
2021/12/27 11:06:04;;;;;;;128.15;39.15;;;;;;;-8.59;100.00;101842.96;1569400;90;21020;-84
2021/12/27 11:08:33;;;;;;;130.12;40.65;;;;;;;-8.54;100.00;101839.58;1546761;91;22143;-84
2021/12/27 11:10:59;;;;;;;126.70;38.55;;;;;;;-8.56;100.00;101846.67;1619643;88;21472;-82
2021/12/27 11:13:30;;;;;;;130.55;40.78;;;;;;;-8.52;100.00;101837.70;1630530;86;21227;-81
2021/12/27 11:15:57;;;;;;;125.22;38.88;;;;;;;-8.51;100.00;101832.36;1588256;89;21049;-85
2021/12/27 11:18:23;;;;;;;155.30;46.65;;;;;;;-8.55;100.00;101837.44;1588519;90;21127;-84
2021/12/27 11:20:54;;;;;;;129.87;40.65;;;;;;;-8.56;100.00;101844.06;1588517;90;21174;-85